sensor_id;sensor_type;location;lat;lon;timestamp;temperature;humidity
26164;DHT22;13914;48.178;11.716;2023-01-19T00:01:26;0.60;98.20
26164;DHT22;13914;48.178;11.716;2023-01-19T00:03:52;0.60;98.20
26164;DHT22;13914;48.178;11.716;2023-01-19T00:06:18;0.60;98.20
26164;DHT22;13914;48.178;11.716;2023-01-19T00:08:44;0.60;98.10
26164;DHT22;13914;48.178;11.716;2023-01-19T00:11:10;0.60;98.30
26164;DHT22;13914;48.178;11.716;2023-01-19T00:13:37;0.60;98.10
26164;DHT22;13914;48.178;11.716;2023-01-19T00:16:04;0.60;98.20
26164;DHT22;13914;48.178;11.716;2023-01-19T00:18:30;0.60;98.30
26164;DHT22;13914;48.178;11.716;2023-01-19T00:20:56;0.60;98.40
26164;DHT22;13914;48.178;11.716;2023-01-19T00:23:21;0.60;98.70
26164;DHT22;13914;48.178;11.716;2023-01-19T00:25:47;0.60;98.30
26164;DHT22;13914;48.178;11.716;2023-01-19T00:28:16;0.60;98.30
26164;DHT22;13914;48.178;11.716;2023-01-19T00:30:42;0.50;98.20
26164;DHT22;13914;48.178;11.716;2023-01-19T00:33:09;0.50;98.40
26164;DHT22;13914;48.178;11.716;2023-01-19T00:35:35;0.50;98.30
26164;DHT22;13914;48.178;11.716;2023-01-19T00:38:01;0.50;98.40
26164;DHT22;13914;48.178;11.716;2023-01-19T00:40:27;0.50;98.30
26164;DHT22;13914;48.178;11.716;2023-01-19T00:42:53;0.50;98.30
26164;DHT22;13914;48.178;11.716;2023-01-19T00:45:19;0.50;98.30
26164;DHT22;13914;48.178;11.716;2023-01-19T00:47:47;0.50;98.20
26164;DHT22;13914;48.178;11.716;2023-01-19T00:50:14;0.50;98.30
26164;DHT22;13914;48.178;11.716;2023-01-19T00:52:41;0.50;98.30
26164;DHT22;13914;48.178;11.716;2023-01-19T00:55:09;0.40;98.30
26164;DHT22;13914;48.178;11.716;2023-01-19T00:57:36;0.50;98.20
26164;DHT22;13914;48.178;11.716;2023-01-19T01:00:03;0.50;98.20
26164;DHT22;13914;48.178;11.716;2023-01-19T01:02:33;0.50;98.20
26164;DHT22;13914;48.178;11.716;2023-01-19T01:04:59;0.50;98.10
26164;DHT22;13914;48.178;11.716;2023-01-19T01:07:27;0.40;98.10
26164;DHT22;13914;48.178;11.716;2023-01-19T01:09:53;0.40;98.10
26164;DHT22;13914;48.178;11.716;2023-01-19T01:12:21;0.40;98.10
26164;DHT22;13914;48.178;11.716;2023-01-19T01:14:47;0.40;98.20
26164;DHT22;13914;48.178;11.716;2023-01-19T01:17:13;0.40;98.20
26164;DHT22;13914;48.178;11.716;2023-01-19T01:19:39;0.40;98.20
26164;DHT22;13914;48.178;11.716;2023-01-19T01:22:06;0.40;98.10
26164;DHT22;13914;48.178;11.716;2023-01-19T01:24:32;0.40;98.20
26164;DHT22;13914;48.178;11.716;2023-01-19T01:26:58;0.40;98.20
26164;DHT22;13914;48.178;11.716;2023-01-19T01:29:24;0.40;98.20
26164;DHT22;13914;48.178;11.716;2023-01-19T01:31:49;0.40;98.10
26164;DHT22;13914;48.178;11.716;2023-01-19T01:34:15;0.40;98.20
26164;DHT22;13914;48.178;11.716;2023-01-19T01:36:41;0.40;98.20
26164;DHT22;13914;48.178;11.716;2023-01-19T01:39:06;0.40;98.10
26164;DHT22;13914;48.178;11.716;2023-01-19T01:41:32;0.40;98.20
26164;DHT22;13914;48.178;11.716;2023-01-19T01:43:58;0.40;98.10
26164;DHT22;13914;48.178;11.716;2023-01-19T01:46:28;0.30;98.00
26164;DHT22;13914;48.178;11.716;2023-01-19T01:51:32;0.40;98.10
26164;DHT22;13914;48.178;11.716;2023-01-19T01:54:11;0.40;98.10
26164;DHT22;13914;48.178;11.716;2023-01-19T01:56:48;0.30;98.10
26164;DHT22;13914;48.178;11.716;2023-01-19T01:59:15;0.40;98.10
26164;DHT22;13914;48.178;11.716;2023-01-19T02:01:53;0.30;98.20
26164;DHT22;13914;48.178;11.716;2023-01-19T02:04:39;0.30;98.10
26164;DHT22;13914;48.178;11.716;2023-01-19T02:07:10;0.30;98.10
26164;DHT22;13914;48.178;11.716;2023-01-19T02:09:55;0.30;98.10
26164;DHT22;13914;48.178;11.716;2023-01-19T02:12:40;0.30;98.00
26164;DHT22;13914;48.178;11.716;2023-01-19T02:15:24;0.30;98.00
26164;DHT22;13914;48.178;11.716;2023-01-19T02:17:50;0.30;98.00
26164;DHT22;13914;48.178;11.716;2023-01-19T02:20:15;0.30;98.00
26164;DHT22;13914;48.178;11.716;2023-01-19T02:22:44;0.30;98.10
26164;DHT22;13914;48.178;11.716;2023-01-19T02:25:13;0.30;98.20
26164;DHT22;13914;48.178;11.716;2023-01-19T02:27:38;0.30;98.10
26164;DHT22;13914;48.178;11.716;2023-01-19T02:30:05;0.30;98.10
26164;DHT22;13914;48.178;11.716;2023-01-19T02:32:32;0.30;98.20
26164;DHT22;13914;48.178;11.716;2023-01-19T02:34:57;0.30;98.10
26164;DHT22;13914;48.178;11.716;2023-01-19T02:37:23;0.30;98.10
26164;DHT22;13914;48.178;11.716;2023-01-19T02:39:50;0.30;98.50
26164;DHT22;13914;48.178;11.716;2023-01-19T02:42:18;0.30;98.10
26164;DHT22;13914;48.178;11.716;2023-01-19T02:44:47;0.30;98.20
26164;DHT22;13914;48.178;11.716;2023-01-19T02:47:13;0.30;98.20
26164;DHT22;13914;48.178;11.716;2023-01-19T02:49:39;0.30;98.20
26164;DHT22;13914;48.178;11.716;2023-01-19T02:52:06;0.30;98.50
26164;DHT22;13914;48.178;11.716;2023-01-19T02:55:21;0.30;98.20
26164;DHT22;13914;48.178;11.716;2023-01-19T03:03:45;0.30;98.20
26164;DHT22;13914;48.178;11.716;2023-01-19T03:06:05;0.30;98.20
26164;DHT22;13914;48.178;11.716;2023-01-19T03:08:38;0.20;98.20
26164;DHT22;13914;48.178;11.716;2023-01-19T03:11:09;0.20;98.20
26164;DHT22;13914;48.178;11.716;2023-01-19T03:16:23;0.20;98.10
26164;DHT22;13914;48.178;11.716;2023-01-19T03:18:55;0.20;98.30
26164;DHT22;13914;48.178;11.716;2023-01-19T03:21:25;0.20;98.30
26164;DHT22;13914;48.178;11.716;2023-01-19T03:23:52;0.20;98.60
26164;DHT22;13914;48.178;11.716;2023-01-19T03:26:23;0.20;98.20
26164;DHT22;13914;48.178;11.716;2023-01-19T03:28:50;0.20;98.20
26164;DHT22;13914;48.178;11.716;2023-01-19T03:31:18;0.20;98.10
26164;DHT22;13914;48.178;11.716;2023-01-19T03:33:48;0.20;98.10
26164;DHT22;13914;48.178;11.716;2023-01-19T03:36:18;0.20;98.10
26164;DHT22;13914;48.178;11.716;2023-01-19T03:38:46;0.20;98.10
26164;DHT22;13914;48.178;11.716;2023-01-19T03:41:13;0.20;98.10
26164;DHT22;13914;48.178;11.716;2023-01-19T03:43:40;0.10;98.10
26164;DHT22;13914;48.178;11.716;2023-01-19T03:46:07;0.20;98.10
26164;DHT22;13914;48.178;11.716;2023-01-19T03:48:35;0.20;98.10
26164;DHT22;13914;48.178;11.716;2023-01-19T03:51:02;0.10;98.00
26164;DHT22;13914;48.178;11.716;2023-01-19T03:53:29;0.10;98.20
26164;DHT22;13914;48.178;11.716;2023-01-19T03:55:54;0.10;98.20
26164;DHT22;13914;48.178;11.716;2023-01-19T03:58:20;0.10;98.10
26164;DHT22;13914;48.178;11.716;2023-01-19T04:00:46;0.10;98.10
26164;DHT22;13914;48.178;11.716;2023-01-19T04:03:13;0.10;98.20
26164;DHT22;13914;48.178;11.716;2023-01-19T04:05:40;0.10;98.10
26164;DHT22;13914;48.178;11.716;2023-01-19T04:08:06;0.10;98.10
26164;DHT22;13914;48.178;11.716;2023-01-19T04:10:32;0.10;98.20
26164;DHT22;13914;48.178;11.716;2023-01-19T04:12:58;0.10;98.10
26164;DHT22;13914;48.178;11.716;2023-01-19T04:15:24;0.00;98.10
26164;DHT22;13914;48.178;11.716;2023-01-19T04:17:50;0.00;98.10
26164;DHT22;13914;48.178;11.716;2023-01-19T04:20:16;0.00;98.10
26164;DHT22;13914;48.178;11.716;2023-01-19T04:22:41;0.00;98.10
26164;DHT22;13914;48.178;11.716;2023-01-19T04:25:07;0.00;98.10
26164;DHT22;13914;48.178;11.716;2023-01-19T04:27:34;0.00;98.00
26164;DHT22;13914;48.178;11.716;2023-01-19T04:30:00;0.00;98.10
26164;DHT22;13914;48.178;11.716;2023-01-19T04:32:28;0.00;98.10
26164;DHT22;13914;48.178;11.716;2023-01-19T04:34:54;-0.10;98.10
26164;DHT22;13914;48.178;11.716;2023-01-19T04:37:20;-0.10;98.10
26164;DHT22;13914;48.178;11.716;2023-01-19T04:39:46;-0.10;98.10
26164;DHT22;13914;48.178;11.716;2023-01-19T04:42:12;-0.10;98.10
26164;DHT22;13914;48.178;11.716;2023-01-19T04:44:37;-0.10;98.10
26164;DHT22;13914;48.178;11.716;2023-01-19T04:47:03;-0.10;98.00
26164;DHT22;13914;48.178;11.716;2023-01-19T04:49:29;-0.10;98.00
26164;DHT22;13914;48.178;11.716;2023-01-19T04:51:54;-0.20;98.00
26164;DHT22;13914;48.178;11.716;2023-01-19T04:54:21;-0.20;98.00
26164;DHT22;13914;48.178;11.716;2023-01-19T04:56:46;-0.20;98.10
26164;DHT22;13914;48.178;11.716;2023-01-19T04:59:12;-0.20;98.10
26164;DHT22;13914;48.178;11.716;2023-01-19T05:01:38;-0.20;98.00
26164;DHT22;13914;48.178;11.716;2023-01-19T05:04:04;-0.20;98.00
26164;DHT22;13914;48.178;11.716;2023-01-19T05:06:31;-0.20;98.10
26164;DHT22;13914;48.178;11.716;2023-01-19T05:08:57;-0.20;98.10
26164;DHT22;13914;48.178;11.716;2023-01-19T05:11:23;-0.20;98.10
26164;DHT22;13914;48.178;11.716;2023-01-19T05:13:49;-0.30;98.00
26164;DHT22;13914;48.178;11.716;2023-01-19T05:16:15;-0.30;98.00
26164;DHT22;13914;48.178;11.716;2023-01-19T05:18:40;-0.20;98.00
26164;DHT22;13914;48.178;11.716;2023-01-19T05:21:06;-0.30;98.00
26164;DHT22;13914;48.178;11.716;2023-01-19T05:23:32;-0.30;98.00
26164;DHT22;13914;48.178;11.716;2023-01-19T05:25:59;-0.30;98.00
26164;DHT22;13914;48.178;11.716;2023-01-19T05:28:26;-0.30;98.00
26164;DHT22;13914;48.178;11.716;2023-01-19T05:30:53;-0.30;97.90
26164;DHT22;13914;48.178;11.716;2023-01-19T05:33:19;-0.30;98.00
26164;DHT22;13914;48.178;11.716;2023-01-19T05:35:48;-0.40;98.00
26164;DHT22;13914;48.178;11.716;2023-01-19T05:38:15;-0.40;98.00
26164;DHT22;13914;48.178;11.716;2023-01-19T05:40:41;-0.40;97.90
26164;DHT22;13914;48.178;11.716;2023-01-19T05:43:06;-0.40;98.00
26164;DHT22;13914;48.178;11.716;2023-01-19T05:45:32;-0.40;97.90
26164;DHT22;13914;48.178;11.716;2023-01-19T05:47:58;-0.40;97.90
26164;DHT22;13914;48.178;11.716;2023-01-19T05:50:24;-0.50;97.90
26164;DHT22;13914;48.178;11.716;2023-01-19T05:52:50;-0.50;97.80
26164;DHT22;13914;48.178;11.716;2023-01-19T05:55:19;-0.50;97.90
26164;DHT22;13914;48.178;11.716;2023-01-19T05:57:45;-0.50;97.90
26164;DHT22;13914;48.178;11.716;2023-01-19T06:00:10;-0.50;97.90
26164;DHT22;13914;48.178;11.716;2023-01-19T06:02:37;-0.50;97.90
26164;DHT22;13914;48.178;11.716;2023-01-19T06:05:02;-0.60;97.80
26164;DHT22;13914;48.178;11.716;2023-01-19T06:07:28;-0.60;97.90
26164;DHT22;13914;48.178;11.716;2023-01-19T06:09:56;-0.60;97.90
26164;DHT22;13914;48.178;11.716;2023-01-19T06:12:22;-0.60;97.90
26164;DHT22;13914;48.178;11.716;2023-01-19T06:14:48;-0.60;97.90
26164;DHT22;13914;48.178;11.716;2023-01-19T06:17:14;-0.60;97.90
26164;DHT22;13914;48.178;11.716;2023-01-19T06:19:39;-0.60;97.80
26164;DHT22;13914;48.178;11.716;2023-01-19T06:22:06;-0.60;97.90
26164;DHT22;13914;48.178;11.716;2023-01-19T06:24:32;-0.70;97.80
26164;DHT22;13914;48.178;11.716;2023-01-19T06:26:57;-0.70;97.80
26164;DHT22;13914;48.178;11.716;2023-01-19T06:29:24;-0.70;97.90
26164;DHT22;13914;48.178;11.716;2023-01-19T06:31:51;-0.70;97.90
26164;DHT22;13914;48.178;11.716;2023-01-19T06:34:17;-0.70;97.90
26164;DHT22;13914;48.178;11.716;2023-01-19T06:36:43;-0.70;97.90
26164;DHT22;13914;48.178;11.716;2023-01-19T06:39:09;-0.80;98.00
26164;DHT22;13914;48.178;11.716;2023-01-19T06:41:35;-0.80;97.90
26164;DHT22;13914;48.178;11.716;2023-01-19T06:44:01;-0.80;98.00
26164;DHT22;13914;48.178;11.716;2023-01-19T06:46:27;-0.80;98.00
26164;DHT22;13914;48.178;11.716;2023-01-19T06:48:53;-0.80;98.00
26164;DHT22;13914;48.178;11.716;2023-01-19T06:51:19;-0.80;97.90
26164;DHT22;13914;48.178;11.716;2023-01-19T06:53:45;-0.80;98.00
26164;DHT22;13914;48.178;11.716;2023-01-19T06:56:11;-0.80;98.40
26164;DHT22;13914;48.178;11.716;2023-01-19T06:58:37;-0.80;98.00
26164;DHT22;13914;48.178;11.716;2023-01-19T07:01:03;-0.80;98.00
26164;DHT22;13914;48.178;11.716;2023-01-19T07:03:29;-0.80;98.00
26164;DHT22;13914;48.178;11.716;2023-01-19T07:05:55;-0.90;98.00
26164;DHT22;13914;48.178;11.716;2023-01-19T07:08:21;-0.80;98.00
26164;DHT22;13914;48.178;11.716;2023-01-19T07:10:47;-0.80;98.00
26164;DHT22;13914;48.178;11.716;2023-01-19T07:13:15;-0.90;98.00
26164;DHT22;13914;48.178;11.716;2023-01-19T07:15:42;-0.90;98.10
26164;DHT22;13914;48.178;11.716;2023-01-19T07:18:08;-0.90;98.10
26164;DHT22;13914;48.178;11.716;2023-01-19T07:20:34;-0.90;98.10
26164;DHT22;13914;48.178;11.716;2023-01-19T07:23:00;-0.90;98.00
26164;DHT22;13914;48.178;11.716;2023-01-19T07:25:27;-0.80;98.10
26164;DHT22;13914;48.178;11.716;2023-01-19T07:27:59;-0.80;98.10
26164;DHT22;13914;48.178;11.716;2023-01-19T07:30:25;-0.80;98.10
26164;DHT22;13914;48.178;11.716;2023-01-19T07:32:53;-0.90;98.00
26164;DHT22;13914;48.178;11.716;2023-01-19T07:35:20;-0.90;98.10
26164;DHT22;13914;48.178;11.716;2023-01-19T07:37:46;-0.90;98.00
26164;DHT22;13914;48.178;11.716;2023-01-19T07:40:12;-0.90;98.10
26164;DHT22;13914;48.178;11.716;2023-01-19T07:42:38;-0.90;98.00
26164;DHT22;13914;48.178;11.716;2023-01-19T07:45:03;-0.90;98.00
26164;DHT22;13914;48.178;11.716;2023-01-19T07:47:29;-0.90;98.00
26164;DHT22;13914;48.178;11.716;2023-01-19T07:49:55;-0.90;98.00
26164;DHT22;13914;48.178;11.716;2023-01-19T07:52:21;-0.90;98.00
26164;DHT22;13914;48.178;11.716;2023-01-19T07:54:47;-0.90;98.00
26164;DHT22;13914;48.178;11.716;2023-01-19T07:57:15;-0.90;98.00
26164;DHT22;13914;48.178;11.716;2023-01-19T07:59:41;-0.90;98.00
26164;DHT22;13914;48.178;11.716;2023-01-19T08:02:08;-0.90;98.00
26164;DHT22;13914;48.178;11.716;2023-01-19T08:04:34;-0.90;98.00
26164;DHT22;13914;48.178;11.716;2023-01-19T08:07:00;-0.90;98.00
26164;DHT22;13914;48.178;11.716;2023-01-19T08:09:26;-0.90;98.00
26164;DHT22;13914;48.178;11.716;2023-01-19T08:11:51;-0.90;97.90
26164;DHT22;13914;48.178;11.716;2023-01-19T08:14:17;-0.90;97.90
26164;DHT22;13914;48.178;11.716;2023-01-19T08:16:43;-0.90;97.90
26164;DHT22;13914;48.178;11.716;2023-01-19T08:19:09;-0.90;97.90
26164;DHT22;13914;48.178;11.716;2023-01-19T08:21:35;-0.90;97.80
26164;DHT22;13914;48.178;11.716;2023-01-19T08:24:03;-0.80;97.90
26164;DHT22;13914;48.178;11.716;2023-01-19T08:26:30;-0.80;97.90
26164;DHT22;13914;48.178;11.716;2023-01-19T08:28:58;-0.80;97.80
26164;DHT22;13914;48.178;11.716;2023-01-19T08:31:25;-0.80;97.80
26164;DHT22;13914;48.178;11.716;2023-01-19T08:33:51;-0.80;97.80
26164;DHT22;13914;48.178;11.716;2023-01-19T08:36:17;-0.80;97.70
26164;DHT22;13914;48.178;11.716;2023-01-19T08:38:46;-0.80;97.70
26164;DHT22;13914;48.178;11.716;2023-01-19T08:41:12;-0.70;97.70
26164;DHT22;13914;48.178;11.716;2023-01-19T08:43:38;-0.70;97.70
26164;DHT22;13914;48.178;11.716;2023-01-19T08:46:03;-0.70;97.70
26164;DHT22;13914;48.178;11.716;2023-01-19T08:48:29;-0.70;97.70
26164;DHT22;13914;48.178;11.716;2023-01-19T08:50:55;-0.70;97.70
26164;DHT22;13914;48.178;11.716;2023-01-19T08:53:21;-0.60;97.80
26164;DHT22;13914;48.178;11.716;2023-01-19T08:55:56;-0.60;97.70
26164;DHT22;13914;48.178;11.716;2023-01-19T08:58:24;-0.60;97.70
26164;DHT22;13914;48.178;11.716;2023-01-19T09:00:50;-0.60;97.80
26164;DHT22;13914;48.178;11.716;2023-01-19T09:03:17;-0.50;97.70
26164;DHT22;13914;48.178;11.716;2023-01-19T09:05:43;-0.50;97.70
26164;DHT22;13914;48.178;11.716;2023-01-19T09:08:10;-0.50;97.60
26164;DHT22;13914;48.178;11.716;2023-01-19T09:10:37;-0.40;97.70
26164;DHT22;13914;48.178;11.716;2023-01-19T09:13:05;-0.40;97.70
26164;DHT22;13914;48.178;11.716;2023-01-19T09:15:32;-0.40;97.70
26164;DHT22;13914;48.178;11.716;2023-01-19T09:18:00;-0.40;97.70
26164;DHT22;13914;48.178;11.716;2023-01-19T09:20:27;-0.30;97.70
26164;DHT22;13914;48.178;11.716;2023-01-19T09:22:58;-0.30;97.60
26164;DHT22;13914;48.178;11.716;2023-01-19T09:25:24;-0.30;97.60
26164;DHT22;13914;48.178;11.716;2023-01-19T09:27:49;-0.20;97.60
26164;DHT22;13914;48.178;11.716;2023-01-19T09:30:15;-0.20;97.50
26164;DHT22;13914;48.178;11.716;2023-01-19T09:32:42;-0.20;97.60
26164;DHT22;13914;48.178;11.716;2023-01-19T09:35:09;-0.20;97.50
26164;DHT22;13914;48.178;11.716;2023-01-19T09:37:35;-0.10;97.50
26164;DHT22;13914;48.178;11.716;2023-01-19T09:40:01;-0.10;97.50
26164;DHT22;13914;48.178;11.716;2023-01-19T09:47:44;0.00;97.50
26164;DHT22;13914;48.178;11.716;2023-01-19T09:50:15;0.10;97.50
26164;DHT22;13914;48.178;11.716;2023-01-19T09:52:46;0.10;97.50
26164;DHT22;13914;48.178;11.716;2023-01-19T09:55:22;0.10;97.50
26164;DHT22;13914;48.178;11.716;2023-01-19T09:57:50;0.20;97.50
26164;DHT22;13914;48.178;11.716;2023-01-19T10:00:16;0.20;97.50
26164;DHT22;13914;48.178;11.716;2023-01-19T10:02:44;0.20;97.40
26164;DHT22;13914;48.178;11.716;2023-01-19T10:05:29;0.20;97.40
26164;DHT22;13914;48.178;11.716;2023-01-19T10:08:18;0.30;97.30
26164;DHT22;13914;48.178;11.716;2023-01-19T10:10:50;0.30;97.30
26164;DHT22;13914;48.178;11.716;2023-01-19T10:18:46;0.40;97.40
26164;DHT22;13914;48.178;11.716;2023-01-19T10:21:20;0.40;97.50
26164;DHT22;13914;48.178;11.716;2023-01-19T10:23:50;0.50;97.50
26164;DHT22;13914;48.178;11.716;2023-01-19T10:26:23;0.50;97.60
26164;DHT22;13914;48.178;11.716;2023-01-19T10:28:51;0.50;97.50
26164;DHT22;13914;48.178;11.716;2023-01-19T10:31:19;0.60;97.50
26164;DHT22;13914;48.178;11.716;2023-01-19T10:33:50;0.60;97.30
26164;DHT22;13914;48.178;11.716;2023-01-19T10:36:36;0.70;97.40
26164;DHT22;13914;48.178;11.716;2023-01-19T10:39:02;0.70;97.30
26164;DHT22;13914;48.178;11.716;2023-01-19T10:41:30;0.70;97.40
26164;DHT22;13914;48.178;11.716;2023-01-19T10:44:06;0.80;97.50
26164;DHT22;13914;48.178;11.716;2023-01-19T10:46:36;0.80;97.50
26164;DHT22;13914;48.178;11.716;2023-01-19T10:49:05;0.90;97.40
26164;DHT22;13914;48.178;11.716;2023-01-19T10:51:31;0.90;97.30
26164;DHT22;13914;48.178;11.716;2023-01-19T10:53:57;0.90;97.20
26164;DHT22;13914;48.178;11.716;2023-01-19T10:56:33;0.90;97.10
26164;DHT22;13914;48.178;11.716;2023-01-19T10:59:00;1.00;97.10
26164;DHT22;13914;48.178;11.716;2023-01-19T11:01:28;1.00;96.90
26164;DHT22;13914;48.178;11.716;2023-01-19T11:03:55;1.00;97.10
26164;DHT22;13914;48.178;11.716;2023-01-19T11:06:30;1.00;97.10
26164;DHT22;13914;48.178;11.716;2023-01-19T11:11:47;1.10;97.20
26164;DHT22;13914;48.178;11.716;2023-01-19T11:14:16;1.20;97.10
26164;DHT22;13914;48.178;11.716;2023-01-19T11:16:45;1.20;97.10
26164;DHT22;13914;48.178;11.716;2023-01-19T11:19:33;1.30;97.30
26164;DHT22;13914;48.178;11.716;2023-01-19T11:24:41;1.30;97.10
26164;DHT22;13914;48.178;11.716;2023-01-19T11:27:08;1.40;97.20
26164;DHT22;13914;48.178;11.716;2023-01-19T11:29:33;1.40;96.90
26164;DHT22;13914;48.178;11.716;2023-01-19T11:32:10;1.40;97.00
26164;DHT22;13914;48.178;11.716;2023-01-19T11:34:39;1.50;97.10
26164;DHT22;13914;48.178;11.716;2023-01-19T11:39:50;1.60;97.00
26164;DHT22;13914;48.178;11.716;2023-01-19T11:42:18;1.60;97.00
26164;DHT22;13914;48.178;11.716;2023-01-19T11:47:32;1.60;96.70
26164;DHT22;13914;48.178;11.716;2023-01-19T11:50:05;1.70;96.60
26164;DHT22;13914;48.178;11.716;2023-01-19T11:52:47;1.70;96.70
26164;DHT22;13914;48.178;11.716;2023-01-19T11:55:42;1.70;96.50
26164;DHT22;13914;48.178;11.716;2023-01-19T11:58:18;1.80;96.30
26164;DHT22;13914;48.178;11.716;2023-01-19T12:00:46;1.80;96.60
26164;DHT22;13914;48.178;11.716;2023-01-19T12:03:28;1.80;96.00
26164;DHT22;13914;48.178;11.716;2023-01-19T12:05:59;1.90;96.60
26164;DHT22;13914;48.178;11.716;2023-01-19T12:08:29;1.90;96.40
26164;DHT22;13914;48.178;11.716;2023-01-19T12:10:59;1.90;95.90
26164;DHT22;13914;48.178;11.716;2023-01-19T12:13:26;2.00;96.30
26164;DHT22;13914;48.178;11.716;2023-01-19T12:16:38;2.00;95.70
26164;DHT22;13914;48.178;11.716;2023-01-19T12:18:55;2.20;96.20
26164;DHT22;13914;48.178;11.716;2023-01-19T12:21:23;2.10;96.20
26164;DHT22;13914;48.178;11.716;2023-01-19T12:26:25;2.20;96.10
26164;DHT22;13914;48.178;11.716;2023-01-19T12:28:54;2.20;96.20
26164;DHT22;13914;48.178;11.716;2023-01-19T12:31:23;2.20;96.00
26164;DHT22;13914;48.178;11.716;2023-01-19T12:33:49;2.20;95.30
26164;DHT22;13914;48.178;11.716;2023-01-19T12:43:45;2.40;95.90
26164;DHT22;13914;48.178;11.716;2023-01-19T12:46:27;2.40;96.00
26164;DHT22;13914;48.178;11.716;2023-01-19T12:48:54;2.40;95.90
26164;DHT22;13914;48.178;11.716;2023-01-19T12:51:30;2.50;96.10
26164;DHT22;13914;48.178;11.716;2023-01-19T12:53:56;2.50;96.00
26164;DHT22;13914;48.178;11.716;2023-01-19T12:56:30;2.50;96.10
26164;DHT22;13914;48.178;11.716;2023-01-19T12:58:58;2.50;95.90
26164;DHT22;13914;48.178;11.716;2023-01-19T13:01:24;2.60;95.80
26164;DHT22;13914;48.178;11.716;2023-01-19T13:04:04;2.50;95.70
26164;DHT22;13914;48.178;11.716;2023-01-19T13:14:44;2.60;95.70
26164;DHT22;13914;48.178;11.716;2023-01-19T13:20:03;2.60;95.80
26164;DHT22;13914;48.178;11.716;2023-01-19T13:22:48;2.60;95.90
26164;DHT22;13914;48.178;11.716;2023-01-19T13:28:00;2.60;95.80
26164;DHT22;13914;48.178;11.716;2023-01-19T13:30:27;2.60;95.50
26164;DHT22;13914;48.178;11.716;2023-01-19T13:33:00;2.60;95.70
26164;DHT22;13914;48.178;11.716;2023-01-19T13:35:29;2.60;95.70
26164;DHT22;13914;48.178;11.716;2023-01-19T13:37:55;2.60;95.70
26164;DHT22;13914;48.178;11.716;2023-01-19T13:40:23;2.50;95.70
26164;DHT22;13914;48.178;11.716;2023-01-19T13:42:52;2.50;95.30
26164;DHT22;13914;48.178;11.716;2023-01-19T13:45:25;2.50;95.60
26164;DHT22;13914;48.178;11.716;2023-01-19T13:47:55;2.60;95.60
26164;DHT22;13914;48.178;11.716;2023-01-19T13:50:26;2.50;95.40
26164;DHT22;13914;48.178;11.716;2023-01-19T13:52:53;2.50;95.10
26164;DHT22;13914;48.178;11.716;2023-01-19T13:55:21;2.50;95.70
26164;DHT22;13914;48.178;11.716;2023-01-19T13:57:48;2.50;95.40
26164;DHT22;13914;48.178;11.716;2023-01-19T14:00:16;2.50;96.00
26164;DHT22;13914;48.178;11.716;2023-01-19T14:05:38;2.50;95.60
26164;DHT22;13914;48.178;11.716;2023-01-19T14:10:45;2.50;95.60
26164;DHT22;13914;48.178;11.716;2023-01-19T14:13:18;2.50;95.50
26164;DHT22;13914;48.178;11.716;2023-01-19T14:15:49;2.50;95.60
26164;DHT22;13914;48.178;11.716;2023-01-19T14:20:51;2.50;95.70
26164;DHT22;13914;48.178;11.716;2023-01-19T14:23:37;2.50;95.70
26164;DHT22;13914;48.178;11.716;2023-01-19T14:26:03;2.50;95.70
26164;DHT22;13914;48.178;11.716;2023-01-19T14:28:32;2.50;95.80
26164;DHT22;13914;48.178;11.716;2023-01-19T14:31:18;2.40;95.70
26164;DHT22;13914;48.178;11.716;2023-01-19T14:33:46;2.40;95.70
26164;DHT22;13914;48.178;11.716;2023-01-19T14:38:45;2.40;95.70
26164;DHT22;13914;48.178;11.716;2023-01-19T14:41:11;2.40;96.10
26164;DHT22;13914;48.178;11.716;2023-01-19T14:43:47;2.40;95.80
26164;DHT22;13914;48.178;11.716;2023-01-19T14:46:18;2.40;95.90
26164;DHT22;13914;48.178;11.716;2023-01-19T14:48:48;2.40;95.90
26164;DHT22;13914;48.178;11.716;2023-01-19T14:51:15;2.40;95.80
26164;DHT22;13914;48.178;11.716;2023-01-19T14:53:47;2.40;95.80
26164;DHT22;13914;48.178;11.716;2023-01-19T14:56:26;2.40;95.90
26164;DHT22;13914;48.178;11.716;2023-01-19T14:58:54;2.40;95.90
26164;DHT22;13914;48.178;11.716;2023-01-19T15:01:23;2.40;95.90
26164;DHT22;13914;48.178;11.716;2023-01-19T15:03:53;2.40;95.90
26164;DHT22;13914;48.178;11.716;2023-01-19T15:06:21;2.40;95.80
26164;DHT22;13914;48.178;11.716;2023-01-19T15:08:48;2.40;95.70
26164;DHT22;13914;48.178;11.716;2023-01-19T15:13:56;2.30;95.70
26164;DHT22;13914;48.178;11.716;2023-01-19T15:16:23;2.30;95.80
26164;DHT22;13914;48.178;11.716;2023-01-19T15:18:50;2.30;95.80
26164;DHT22;13914;48.178;11.716;2023-01-19T15:21:17;2.30;95.40
26164;DHT22;13914;48.178;11.716;2023-01-19T15:23:44;2.30;95.60
26164;DHT22;13914;48.178;11.716;2023-01-19T15:26:12;2.20;95.50
26164;DHT22;13914;48.178;11.716;2023-01-19T15:28:40;2.30;95.50
26164;DHT22;13914;48.178;11.716;2023-01-19T15:31:06;2.20;95.40
26164;DHT22;13914;48.178;11.716;2023-01-19T15:33:32;2.20;95.20
26164;DHT22;13914;48.178;11.716;2023-01-19T15:35:58;2.20;95.30
26164;DHT22;13914;48.178;11.716;2023-01-19T15:38:24;2.20;95.40
26164;DHT22;13914;48.178;11.716;2023-01-19T15:40:50;2.10;95.30
26164;DHT22;13914;48.178;11.716;2023-01-19T15:43:16;2.10;95.50
26164;DHT22;13914;48.178;11.716;2023-01-19T15:45:42;2.10;95.60
26164;DHT22;13914;48.178;11.716;2023-01-19T15:48:14;2.10;95.60
26164;DHT22;13914;48.178;11.716;2023-01-19T15:50:41;2.10;95.60
26164;DHT22;13914;48.178;11.716;2023-01-19T15:53:15;2.10;95.60
26164;DHT22;13914;48.178;11.716;2023-01-19T15:55:42;2.10;95.60
26164;DHT22;13914;48.178;11.716;2023-01-19T15:58:08;2.10;95.60
26164;DHT22;13914;48.178;11.716;2023-01-19T16:00:34;2.10;95.60
26164;DHT22;13914;48.178;11.716;2023-01-19T16:03:01;2.10;95.70
26164;DHT22;13914;48.178;11.716;2023-01-19T16:05:28;2.00;95.70
26164;DHT22;13914;48.178;11.716;2023-01-19T16:07:54;2.00;96.10
26164;DHT22;13914;48.178;11.716;2023-01-19T16:10:19;2.00;95.70
26164;DHT22;13914;48.178;11.716;2023-01-19T16:12:45;2.00;95.60
26164;DHT22;13914;48.178;11.716;2023-01-19T16:15:14;2.00;95.60
26164;DHT22;13914;48.178;11.716;2023-01-19T16:17:41;2.00;95.60
26164;DHT22;13914;48.178;11.716;2023-01-19T16:20:07;2.00;95.60
26164;DHT22;13914;48.178;11.716;2023-01-19T16:22:33;2.00;95.60
26164;DHT22;13914;48.178;11.716;2023-01-19T16:24:59;1.90;95.60
26164;DHT22;13914;48.178;11.716;2023-01-19T16:27:25;2.00;95.50
26164;DHT22;13914;48.178;11.716;2023-01-19T16:29:51;1.90;95.50
26164;DHT22;13914;48.178;11.716;2023-01-19T16:32:17;1.90;95.60
26164;DHT22;13914;48.178;11.716;2023-01-19T16:34:43;1.90;95.50
26164;DHT22;13914;48.178;11.716;2023-01-19T16:37:08;1.80;95.60
26164;DHT22;13914;48.178;11.716;2023-01-19T16:39:34;1.80;95.60
26164;DHT22;13914;48.178;11.716;2023-01-19T16:42:00;1.80;95.70